sensor_id;sensor_type;location;lat;lon;timestamp;temperature;humidity
21459;DHT22;10891;49.350;19.386;2023-03-14T00:00:50;6.10;99.90
21459;DHT22;10891;49.350;19.386;2023-03-14T00:03:17;6.00;99.90
21459;DHT22;10891;49.350;19.386;2023-03-14T00:05:44;6.00;99.90
21459;DHT22;10891;49.350;19.386;2023-03-14T00:08:12;5.90;99.90
21459;DHT22;10891;49.350;19.386;2023-03-14T00:10:39;5.90;99.90
21459;DHT22;10891;49.350;19.386;2023-03-14T00:13:06;5.90;99.90
21459;DHT22;10891;49.350;19.386;2023-03-14T00:15:34;5.90;99.90
21459;DHT22;10891;49.350;19.386;2023-03-14T00:18:02;5.80;99.90
21459;DHT22;10891;49.350;19.386;2023-03-14T00:20:28;5.80;99.90
21459;DHT22;10891;49.350;19.386;2023-03-14T00:22:55;5.80;99.90
21459;DHT22;10891;49.350;19.386;2023-03-14T00:25:22;5.70;99.90
21459;DHT22;10891;49.350;19.386;2023-03-14T00:27:50;5.80;99.90
21459;DHT22;10891;49.350;19.386;2023-03-14T00:30:17;5.90;99.90
21459;DHT22;10891;49.350;19.386;2023-03-14T00:32:45;5.90;99.90
21459;DHT22;10891;49.350;19.386;2023-03-14T00:35:12;5.90;99.90
21459;DHT22;10891;49.350;19.386;2023-03-14T00:37:39;5.90;99.90
21459;DHT22;10891;49.350;19.386;2023-03-14T00:40:08;6.00;99.90
21459;DHT22;10891;49.350;19.386;2023-03-14T00:42:35;6.10;99.90
21459;DHT22;10891;49.350;19.386;2023-03-14T00:45:02;6.10;99.90
21459;DHT22;10891;49.350;19.386;2023-03-14T00:47:29;6.10;99.90
21459;DHT22;10891;49.350;19.386;2023-03-14T00:49:57;6.10;99.90
21459;DHT22;10891;49.350;19.386;2023-03-14T00:52:24;6.20;99.90
21459;DHT22;10891;49.350;19.386;2023-03-14T00:54:51;6.10;99.90
21459;DHT22;10891;49.350;19.386;2023-03-14T00:57:18;6.20;99.90
21459;DHT22;10891;49.350;19.386;2023-03-14T00:59:44;6.20;99.90
21459;DHT22;10891;49.350;19.386;2023-03-14T01:02:11;6.20;99.90
21459;DHT22;10891;49.350;19.386;2023-03-14T01:04:38;6.20;99.90
21459;DHT22;10891;49.350;19.386;2023-03-14T01:07:10;6.10;99.90
21459;DHT22;10891;49.350;19.386;2023-03-14T01:09:36;6.10;99.90
21459;DHT22;10891;49.350;19.386;2023-03-14T01:12:03;6.00;99.90
21459;DHT22;10891;49.350;19.386;2023-03-14T01:14:30;6.00;99.90
21459;DHT22;10891;49.350;19.386;2023-03-14T01:16:57;6.00;99.90
21459;DHT22;10891;49.350;19.386;2023-03-14T01:19:26;6.00;99.90
21459;DHT22;10891;49.350;19.386;2023-03-14T01:21:53;6.00;99.90
21459;DHT22;10891;49.350;19.386;2023-03-14T01:24:22;6.10;99.90
21459;DHT22;10891;49.350;19.386;2023-03-14T01:26:49;6.10;99.90
21459;DHT22;10891;49.350;19.386;2023-03-14T01:29:15;6.10;99.90
21459;DHT22;10891;49.350;19.386;2023-03-14T01:31:42;6.10;99.90
21459;DHT22;10891;49.350;19.386;2023-03-14T01:34:09;6.10;99.90
21459;DHT22;10891;49.350;19.386;2023-03-14T01:36:36;6.10;99.90
21459;DHT22;10891;49.350;19.386;2023-03-14T01:39:03;6.10;99.90
21459;DHT22;10891;49.350;19.386;2023-03-14T01:41:32;6.10;99.90
21459;DHT22;10891;49.350;19.386;2023-03-14T01:43:59;6.20;99.90
21459;DHT22;10891;49.350;19.386;2023-03-14T01:46:36;6.20;99.90
21459;DHT22;10891;49.350;19.386;2023-03-14T01:49:07;6.30;99.90
21459;DHT22;10891;49.350;19.386;2023-03-14T01:51:40;6.40;99.90
21459;DHT22;10891;49.350;19.386;2023-03-14T01:54:14;6.40;99.90
21459;DHT22;10891;49.350;19.386;2023-03-14T01:56:45;6.40;99.90
21459;DHT22;10891;49.350;19.386;2023-03-14T01:59:13;6.50;99.90
21459;DHT22;10891;49.350;19.386;2023-03-14T02:01:43;6.50;99.90
21459;DHT22;10891;49.350;19.386;2023-03-14T02:04:11;6.50;99.90
21459;DHT22;10891;49.350;19.386;2023-03-14T02:06:44;6.60;99.90
21459;DHT22;10891;49.350;19.386;2023-03-14T02:09:13;6.50;99.90
21459;DHT22;10891;49.350;19.386;2023-03-14T02:11:41;6.40;99.90
21459;DHT22;10891;49.350;19.386;2023-03-14T02:14:12;6.50;99.90
21459;DHT22;10891;49.350;19.386;2023-03-14T02:16:40;6.50;99.90
21459;DHT22;10891;49.350;19.386;2023-03-14T02:19:08;6.50;99.90
21459;DHT22;10891;49.350;19.386;2023-03-14T02:21:44;6.60;99.90
21459;DHT22;10891;49.350;19.386;2023-03-14T02:24:20;6.50;99.90
21459;DHT22;10891;49.350;19.386;2023-03-14T02:27:11;6.50;99.90
21459;DHT22;10891;49.350;19.386;2023-03-14T02:29:43;6.60;99.90
21459;DHT22;10891;49.350;19.386;2023-03-14T02:32:12;6.60;99.90
21459;DHT22;10891;49.350;19.386;2023-03-14T02:34:41;6.80;99.90
21459;DHT22;10891;49.350;19.386;2023-03-14T02:37:10;6.80;99.90
21459;DHT22;10891;49.350;19.386;2023-03-14T02:39:39;6.70;99.90
21459;DHT22;10891;49.350;19.386;2023-03-14T02:42:08;6.70;99.90
21459;DHT22;10891;49.350;19.386;2023-03-14T02:44:35;6.80;99.90
21459;DHT22;10891;49.350;19.386;2023-03-14T02:47:02;6.80;99.90
21459;DHT22;10891;49.350;19.386;2023-03-14T02:49:31;6.80;99.90
21459;DHT22;10891;49.350;19.386;2023-03-14T02:51:58;6.80;99.90
21459;DHT22;10891;49.350;19.386;2023-03-14T02:54:25;6.70;99.90
21459;DHT22;10891;49.350;19.386;2023-03-14T02:56:52;6.70;99.90
21459;DHT22;10891;49.350;19.386;2023-03-14T02:59:20;6.80;99.90
21459;DHT22;10891;49.350;19.386;2023-03-14T03:01:47;6.80;99.90
21459;DHT22;10891;49.350;19.386;2023-03-14T03:04:14;6.80;99.90
21459;DHT22;10891;49.350;19.386;2023-03-14T03:06:40;6.70;99.90
21459;DHT22;10891;49.350;19.386;2023-03-14T03:09:08;6.60;99.90
21459;DHT22;10891;49.350;19.386;2023-03-14T03:11:34;6.50;99.90
21459;DHT22;10891;49.350;19.386;2023-03-14T03:14:01;6.50;99.90
21459;DHT22;10891;49.350;19.386;2023-03-14T03:16:30;6.60;99.90
21459;DHT22;10891;49.350;19.386;2023-03-14T03:18:56;6.60;99.90
21459;DHT22;10891;49.350;19.386;2023-03-14T03:21:23;6.70;99.90
21459;DHT22;10891;49.350;19.386;2023-03-14T03:23:51;6.80;99.90
21459;DHT22;10891;49.350;19.386;2023-03-14T03:26:17;6.80;99.90
21459;DHT22;10891;49.350;19.386;2023-03-14T03:28:44;6.80;99.90
21459;DHT22;10891;49.350;19.386;2023-03-14T03:31:12;6.90;99.90
21459;DHT22;10891;49.350;19.386;2023-03-14T03:33:40;6.90;99.90
21459;DHT22;10891;49.350;19.386;2023-03-14T03:36:08;6.80;99.90
21459;DHT22;10891;49.350;19.386;2023-03-14T03:38:35;6.80;99.90
21459;DHT22;10891;49.350;19.386;2023-03-14T03:41:04;6.80;99.90
21459;DHT22;10891;49.350;19.386;2023-03-14T03:43:31;6.70;99.90
21459;DHT22;10891;49.350;19.386;2023-03-14T03:45:58;6.70;99.90
21459;DHT22;10891;49.350;19.386;2023-03-14T03:48:24;6.70;99.90
21459;DHT22;10891;49.350;19.386;2023-03-14T03:50:53;6.80;99.90
21459;DHT22;10891;49.350;19.386;2023-03-14T03:53:19;6.70;99.90
21459;DHT22;10891;49.350;19.386;2023-03-14T03:55:47;6.70;99.90
21459;DHT22;10891;49.350;19.386;2023-03-14T03:58:13;6.70;99.90
21459;DHT22;10891;49.350;19.386;2023-03-14T04:00:41;6.60;99.90
21459;DHT22;10891;49.350;19.386;2023-03-14T04:03:07;6.60;99.90
21459;DHT22;10891;49.350;19.386;2023-03-14T04:05:34;6.60;99.90
21459;DHT22;10891;49.350;19.386;2023-03-14T04:08:04;6.50;99.90
21459;DHT22;10891;49.350;19.386;2023-03-14T04:10:34;6.50;99.90
21459;DHT22;10891;49.350;19.386;2023-03-14T04:13:01;6.30;99.90
21459;DHT22;10891;49.350;19.386;2023-03-14T04:15:27;6.30;99.90
21459;DHT22;10891;49.350;19.386;2023-03-14T04:17:57;6.10;99.90
21459;DHT22;10891;49.350;19.386;2023-03-14T04:20:24;6.30;99.90
21459;DHT22;10891;49.350;19.386;2023-03-14T04:22:51;6.40;99.90
21459;DHT22;10891;49.350;19.386;2023-03-14T04:25:19;6.40;99.90
21459;DHT22;10891;49.350;19.386;2023-03-14T04:27:47;6.40;99.90
21459;DHT22;10891;49.350;19.386;2023-03-14T04:30:15;6.30;99.90
21459;DHT22;10891;49.350;19.386;2023-03-14T04:32:42;6.30;99.90
21459;DHT22;10891;49.350;19.386;2023-03-14T04:35:09;6.30;99.90
21459;DHT22;10891;49.350;19.386;2023-03-14T04:37:36;6.50;99.90
21459;DHT22;10891;49.350;19.386;2023-03-14T04:40:04;6.60;99.90
21459;DHT22;10891;49.350;19.386;2023-03-14T04:42:33;6.60;99.90
21459;DHT22;10891;49.350;19.386;2023-03-14T04:45:00;6.50;99.90
21459;DHT22;10891;49.350;19.386;2023-03-14T04:47:27;6.60;99.90
21459;DHT22;10891;49.350;19.386;2023-03-14T04:49:55;6.50;99.90
21459;DHT22;10891;49.350;19.386;2023-03-14T04:52:23;6.40;99.90
21459;DHT22;10891;49.350;19.386;2023-03-14T04:54:50;6.50;99.90
21459;DHT22;10891;49.350;19.386;2023-03-14T04:57:17;6.40;99.90
21459;DHT22;10891;49.350;19.386;2023-03-14T04:59:45;6.50;99.90
21459;DHT22;10891;49.350;19.386;2023-03-14T05:02:12;6.60;99.90
21459;DHT22;10891;49.350;19.386;2023-03-14T05:04:39;6.60;99.90
21459;DHT22;10891;49.350;19.386;2023-03-14T05:07:06;6.60;99.90
21459;DHT22;10891;49.350;19.386;2023-03-14T05:09:33;6.50;99.90
21459;DHT22;10891;49.350;19.386;2023-03-14T05:12:00;6.60;99.90
21459;DHT22;10891;49.350;19.386;2023-03-14T05:14:27;6.70;99.90
21459;DHT22;10891;49.350;19.386;2023-03-14T05:16:55;6.90;99.90
21459;DHT22;10891;49.350;19.386;2023-03-14T05:19:22;7.00;99.90
21459;DHT22;10891;49.350;19.386;2023-03-14T05:21:49;7.10;99.90
21459;DHT22;10891;49.350;19.386;2023-03-14T05:24:16;7.10;99.90
21459;DHT22;10891;49.350;19.386;2023-03-14T05:26:43;7.20;99.90
21459;DHT22;10891;49.350;19.386;2023-03-14T05:29:10;7.20;99.90
21459;DHT22;10891;49.350;19.386;2023-03-14T05:31:37;7.20;99.90
21459;DHT22;10891;49.350;19.386;2023-03-14T05:34:05;7.30;99.90
21459;DHT22;10891;49.350;19.386;2023-03-14T05:36:32;7.40;99.90
21459;DHT22;10891;49.350;19.386;2023-03-14T05:38:59;7.40;99.90
21459;DHT22;10891;49.350;19.386;2023-03-14T05:41:26;7.50;99.90
21459;DHT22;10891;49.350;19.386;2023-03-14T05:43:53;7.60;99.90
21459;DHT22;10891;49.350;19.386;2023-03-14T05:46:20;7.60;99.90
21459;DHT22;10891;49.350;19.386;2023-03-14T05:48:47;7.70;99.90
21459;DHT22;10891;49.350;19.386;2023-03-14T05:51:16;7.80;99.90
21459;DHT22;10891;49.350;19.386;2023-03-14T05:53:43;8.00;99.90
21459;DHT22;10891;49.350;19.386;2023-03-14T05:56:10;8.10;99.90
21459;DHT22;10891;49.350;19.386;2023-03-14T05:58:38;8.30;99.90
21459;DHT22;10891;49.350;19.386;2023-03-14T06:01:06;8.30;99.90
21459;DHT22;10891;49.350;19.386;2023-03-14T06:03:33;8.40;99.90
21459;DHT22;10891;49.350;19.386;2023-03-14T06:06:00;8.40;99.90
21459;DHT22;10891;49.350;19.386;2023-03-14T06:08:28;8.40;99.90
21459;DHT22;10891;49.350;19.386;2023-03-14T06:10:56;8.40;99.90
21459;DHT22;10891;49.350;19.386;2023-03-14T06:13:23;8.40;99.90
21459;DHT22;10891;49.350;19.386;2023-03-14T06:15:50;8.60;99.90
21459;DHT22;10891;49.350;19.386;2023-03-14T06:18:17;8.70;99.90
21459;DHT22;10891;49.350;19.386;2023-03-14T06:20:44;8.80;99.90
21459;DHT22;10891;49.350;19.386;2023-03-14T06:23:11;8.90;99.90
21459;DHT22;10891;49.350;19.386;2023-03-14T06:25:40;8.90;99.90
21459;DHT22;10891;49.350;19.386;2023-03-14T06:28:07;9.00;99.90
21459;DHT22;10891;49.350;19.386;2023-03-14T06:30:34;9.00;99.90
21459;DHT22;10891;49.350;19.386;2023-03-14T06:33:02;9.10;99.90
21459;DHT22;10891;49.350;19.386;2023-03-14T06:35:29;9.20;99.90
21459;DHT22;10891;49.350;19.386;2023-03-14T06:37:56;9.20;99.90
21459;DHT22;10891;49.350;19.386;2023-03-14T06:40:23;9.20;99.90
21459;DHT22;10891;49.350;19.386;2023-03-14T06:42:52;9.10;99.90
21459;DHT22;10891;49.350;19.386;2023-03-14T06:45:19;9.10;99.90
21459;DHT22;10891;49.350;19.386;2023-03-14T06:47:46;9.00;99.90
21459;DHT22;10891;49.350;19.386;2023-03-14T06:50:13;9.00;99.90
21459;DHT22;10891;49.350;19.386;2023-03-14T06:52:40;9.10;99.90
21459;DHT22;10891;49.350;19.386;2023-03-14T06:55:11;9.10;99.90
21459;DHT22;10891;49.350;19.386;2023-03-14T06:57:38;9.20;99.90
21459;DHT22;10891;49.350;19.386;2023-03-14T07:00:08;9.20;99.90
21459;DHT22;10891;49.350;19.386;2023-03-14T07:02:35;9.30;99.90
21459;DHT22;10891;49.350;19.386;2023-03-14T07:05:02;9.40;99.90
21459;DHT22;10891;49.350;19.386;2023-03-14T07:07:30;9.30;99.90
21459;DHT22;10891;49.350;19.386;2023-03-14T07:09:57;9.70;99.90
21459;DHT22;10891;49.350;19.386;2023-03-14T07:12:25;9.80;99.90
21459;DHT22;10891;49.350;19.386;2023-03-14T07:14:52;10.00;99.90
21459;DHT22;10891;49.350;19.386;2023-03-14T07:17:20;10.00;99.90
21459;DHT22;10891;49.350;19.386;2023-03-14T07:19:47;10.10;99.90
21459;DHT22;10891;49.350;19.386;2023-03-14T07:22:14;10.00;99.90
21459;DHT22;10891;49.350;19.386;2023-03-14T07:24:41;9.90;99.90
21459;DHT22;10891;49.350;19.386;2023-03-14T07:27:08;9.80;99.90
21459;DHT22;10891;49.350;19.386;2023-03-14T07:29:35;9.80;99.90
21459;DHT22;10891;49.350;19.386;2023-03-14T07:32:03;9.70;99.90
21459;DHT22;10891;49.350;19.386;2023-03-14T07:34:31;9.70;99.90
21459;DHT22;10891;49.350;19.386;2023-03-14T07:36:58;9.70;99.90
21459;DHT22;10891;49.350;19.386;2023-03-14T07:39:25;9.50;99.90
21459;DHT22;10891;49.350;19.386;2023-03-14T07:41:52;9.50;99.90
21459;DHT22;10891;49.350;19.386;2023-03-14T07:44:18;9.40;99.90
21459;DHT22;10891;49.350;19.386;2023-03-14T07:46:45;9.50;99.90
21459;DHT22;10891;49.350;19.386;2023-03-14T07:49:12;9.50;99.90
21459;DHT22;10891;49.350;19.386;2023-03-14T07:51:41;9.50;99.90
21459;DHT22;10891;49.350;19.386;2023-03-14T07:54:09;9.70;99.90
21459;DHT22;10891;49.350;19.386;2023-03-14T07:56:36;9.90;99.90
21459;DHT22;10891;49.350;19.386;2023-03-14T07:59:03;9.90;99.90
21459;DHT22;10891;49.350;19.386;2023-03-14T08:01:30;10.00;99.90
21459;DHT22;10891;49.350;19.386;2023-03-14T08:03:57;10.00;99.90
21459;DHT22;10891;49.350;19.386;2023-03-14T08:06:24;10.00;99.90
21459;DHT22;10891;49.350;19.386;2023-03-14T08:08:52;10.20;99.90
21459;DHT22;10891;49.350;19.386;2023-03-14T08:11:19;10.10;99.90
21459;DHT22;10891;49.350;19.386;2023-03-14T08:13:46;10.10;99.90
21459;DHT22;10891;49.350;19.386;2023-03-14T08:16:15;10.20;99.90
21459;DHT22;10891;49.350;19.386;2023-03-14T08:18:43;10.10;99.90
21459;DHT22;10891;49.350;19.386;2023-03-14T08:21:10;10.10;99.90
21459;DHT22;10891;49.350;19.386;2023-03-14T08:23:36;10.00;99.90
21459;DHT22;10891;49.350;19.386;2023-03-14T08:26:06;10.30;99.90
21459;DHT22;10891;49.350;19.386;2023-03-14T08:28:33;10.70;99.90
21459;DHT22;10891;49.350;19.386;2023-03-14T08:31:01;10.90;99.90
21459;DHT22;10891;49.350;19.386;2023-03-14T08:33:28;10.90;99.90
21459;DHT22;10891;49.350;19.386;2023-03-14T08:35:57;10.60;99.90
21459;DHT22;10891;49.350;19.386;2023-03-14T08:38:24;10.20;99.90
21459;DHT22;10891;49.350;19.386;2023-03-14T08:40:55;10.10;99.90
21459;DHT22;10891;49.350;19.386;2023-03-14T08:43:24;10.00;99.90
21459;DHT22;10891;49.350;19.386;2023-03-14T08:45:51;10.00;99.90
21459;DHT22;10891;49.350;19.386;2023-03-14T08:48:18;10.30;99.90
21459;DHT22;10891;49.350;19.386;2023-03-14T08:50:45;10.50;99.90
21459;DHT22;10891;49.350;19.386;2023-03-14T08:53:12;10.80;99.90
21459;DHT22;10891;49.350;19.386;2023-03-14T08:55:39;11.00;99.90
21459;DHT22;10891;49.350;19.386;2023-03-14T08:58:06;11.00;99.90
21459;DHT22;10891;49.350;19.386;2023-03-14T09:00:34;11.00;99.90
21459;DHT22;10891;49.350;19.386;2023-03-14T09:03:01;11.00;99.90
21459;DHT22;10891;49.350;19.386;2023-03-14T09:05:28;11.00;99.90
21459;DHT22;10891;49.350;19.386;2023-03-14T09:07:55;11.10;99.90
21459;DHT22;10891;49.350;19.386;2023-03-14T09:10:22;11.30;99.90
21459;DHT22;10891;49.350;19.386;2023-03-14T09:12:49;11.40;99.90
21459;DHT22;10891;49.350;19.386;2023-03-14T09:15:16;11.20;99.90
21459;DHT22;10891;49.350;19.386;2023-03-14T09:17:44;11.30;99.90
21459;DHT22;10891;49.350;19.386;2023-03-14T09:20:11;11.40;99.90
21459;DHT22;10891;49.350;19.386;2023-03-14T09:22:40;11.80;99.90
21459;DHT22;10891;49.350;19.386;2023-03-14T09:25:07;12.10;99.90
21459;DHT22;10891;49.350;19.386;2023-03-14T09:27:35;12.20;99.90
21459;DHT22;10891;49.350;19.386;2023-03-14T09:30:03;12.30;99.90
21459;DHT22;10891;49.350;19.386;2023-03-14T09:32:33;12.10;99.90
21459;DHT22;10891;49.350;19.386;2023-03-14T09:35:01;12.00;99.90
21459;DHT22;10891;49.350;19.386;2023-03-14T09:37:28;11.80;99.90
21459;DHT22;10891;49.350;19.386;2023-03-14T09:39:59;11.50;99.90
21459;DHT22;10891;49.350;19.386;2023-03-14T09:42:32;11.40;99.90
21459;DHT22;10891;49.350;19.386;2023-03-14T09:45:05;11.40;99.90
21459;DHT22;10891;49.350;19.386;2023-03-14T09:47:35;11.40;99.90
21459;DHT22;10891;49.350;19.386;2023-03-14T09:50:09;11.30;99.90
21459;DHT22;10891;49.350;19.386;2023-03-14T09:52:38;11.30;99.90
21459;DHT22;10891;49.350;19.386;2023-03-14T09:55:20;11.40;99.90
21459;DHT22;10891;49.350;19.386;2023-03-14T09:57:50;11.40;99.90
21459;DHT22;10891;49.350;19.386;2023-03-14T10:00:26;11.60;99.90
21459;DHT22;10891;49.350;19.386;2023-03-14T10:02:56;11.70;99.90
21459;DHT22;10891;49.350;19.386;2023-03-14T10:05:33;11.90;99.90
21459;DHT22;10891;49.350;19.386;2023-03-14T10:08:03;12.10;99.90
21459;DHT22;10891;49.350;19.386;2023-03-14T10:10:32;12.30;99.90
21459;DHT22;10891;49.350;19.386;2023-03-14T10:13:05;12.20;99.90
21459;DHT22;10891;49.350;19.386;2023-03-14T10:15:35;12.40;99.90
21459;DHT22;10891;49.350;19.386;2023-03-14T10:18:03;12.60;99.90
21459;DHT22;10891;49.350;19.386;2023-03-14T10:20:38;12.80;99.90
21459;DHT22;10891;49.350;19.386;2023-03-14T10:23:20;13.10;99.90
21459;DHT22;10891;49.350;19.386;2023-03-14T10:26:00;13.10;99.90
21459;DHT22;10891;49.350;19.386;2023-03-14T10:28:31;13.10;99.90
21459;DHT22;10891;49.350;19.386;2023-03-14T10:30:59;13.20;99.90
21459;DHT22;10891;49.350;19.386;2023-03-14T10:33:28;13.30;99.90
21459;DHT22;10891;49.350;19.386;2023-03-14T10:35:58;13.40;99.90
21459;DHT22;10891;49.350;19.386;2023-03-14T10:38:27;13.20;99.90
21459;DHT22;10891;49.350;19.386;2023-03-14T10:40:55;13.00;99.90
21459;DHT22;10891;49.350;19.386;2023-03-14T10:43:25;13.00;99.90
21459;DHT22;10891;49.350;19.386;2023-03-14T10:45:55;13.00;99.90
21459;DHT22;10891;49.350;19.386;2023-03-14T10:48:29;13.00;99.90
21459;DHT22;10891;49.350;19.386;2023-03-14T10:51:04;13.10;99.90
21459;DHT22;10891;49.350;19.386;2023-03-14T10:53:40;12.90;99.90
21459;DHT22;10891;49.350;19.386;2023-03-14T10:56:11;12.70;99.90
21459;DHT22;10891;49.350;19.386;2023-03-14T10:58:41;12.60;99.90
21459;DHT22;10891;49.350;19.386;2023-03-14T11:01:36;12.50;99.90
21459;DHT22;10891;49.350;19.386;2023-03-14T11:04:14;12.50;99.90
21459;DHT22;10891;49.350;19.386;2023-03-14T11:06:46;12.40;99.90
21459;DHT22;10891;49.350;19.386;2023-03-14T11:09:20;12.30;99.90
21459;DHT22;10891;49.350;19.386;2023-03-14T11:11:48;12.10;99.90
21459;DHT22;10891;49.350;19.386;2023-03-14T11:14:25;12.00;99.90
21459;DHT22;10891;49.350;19.386;2023-03-14T11:16:59;12.00;99.90
21459;DHT22;10891;49.350;19.386;2023-03-14T11:19:51;12.10;99.90
21459;DHT22;10891;49.350;19.386;2023-03-14T11:22:29;12.00;99.90
21459;DHT22;10891;49.350;19.386;2023-03-14T11:25:09;12.00;99.90
21459;DHT22;10891;49.350;19.386;2023-03-14T11:27:44;11.90;99.90
21459;DHT22;10891;49.350;19.386;2023-03-14T11:30:19;11.80;99.90
21459;DHT22;10891;49.350;19.386;2023-03-14T11:32:53;11.80;99.90
21459;DHT22;10891;49.350;19.386;2023-03-14T11:35:25;11.70;99.90
21459;DHT22;10891;49.350;19.386;2023-03-14T11:37:57;11.60;99.90
21459;DHT22;10891;49.350;19.386;2023-03-14T11:40:27;11.50;99.90
21459;DHT22;10891;49.350;19.386;2023-03-14T11:42:59;11.40;99.90
21459;DHT22;10891;49.350;19.386;2023-03-14T11:45:32;11.20;99.90
21459;DHT22;10891;49.350;19.386;2023-03-14T11:48:17;11.10;99.90
21459;DHT22;10891;49.350;19.386;2023-03-14T11:50:49;11.00;99.90
21459;DHT22;10891;49.350;19.386;2023-03-14T11:53:22;11.00;99.90
21459;DHT22;10891;49.350;19.386;2023-03-14T11:55:52;11.00;99.90
21459;DHT22;10891;49.350;19.386;2023-03-14T11:58:22;10.90;99.90
21459;DHT22;10891;49.350;19.386;2023-03-14T12:00:52;11.00;99.90
21459;DHT22;10891;49.350;19.386;2023-03-14T12:03:27;10.90;99.90
21459;DHT22;10891;49.350;19.386;2023-03-14T12:06:04;11.00;99.90
21459;DHT22;10891;49.350;19.386;2023-03-14T12:08:42;11.00;99.90
21459;DHT22;10891;49.350;19.386;2023-03-14T12:11:19;11.00;99.90
21459;DHT22;10891;49.350;19.386;2023-03-14T12:13:49;11.00;99.90
21459;DHT22;10891;49.350;19.386;2023-03-14T12:16:30;11.00;99.90
21459;DHT22;10891;49.350;19.386;2023-03-14T12:18:57;11.00;99.90
21459;DHT22;10891;49.350;19.386;2023-03-14T12:21:48;10.90;99.90
21459;DHT22;10891;49.350;19.386;2023-03-14T12:24:21;10.90;99.90
21459;DHT22;10891;49.350;19.386;2023-03-14T12:26:53;10.90;99.90
21459;DHT22;10891;49.350;19.386;2023-03-14T12:29:21;10.90;99.90
21459;DHT22;10891;49.350;19.386;2023-03-14T12:31:49;10.90;99.90
21459;DHT22;10891;49.350;19.386;2023-03-14T12:34:32;10.90;99.90
21459;DHT22;10891;49.350;19.386;2023-03-14T12:37:06;10.80;99.90
21459;DHT22;10891;49.350;19.386;2023-03-14T12:39:45;10.70;99.90
21459;DHT22;10891;49.350;19.386;2023-03-14T12:42:20;10.50;99.90
21459;DHT22;10891;49.350;19.386;2023-03-14T12:44:48;10.40;99.90
21459;DHT22;10891;49.350;19.386;2023-03-14T12:47:49;10.30;99.90
21459;DHT22;10891;49.350;19.386;2023-03-14T12:50:25;10.20;99.90
21459;DHT22;10891;49.350;19.386;2023-03-14T12:53:24;10.10;99.90
21459;DHT22;10891;49.350;19.386;2023-03-14T12:56:00;10.00;99.90
21459;DHT22;10891;49.350;19.386;2023-03-14T12:58:32;10.00;99.90
21459;DHT22;10891;49.350;19.386;2023-03-14T13:01:03;9.90;99.90
21459;DHT22;10891;49.350;19.386;2023-03-14T13:03:39;9.80;99.90
21459;DHT22;10891;49.350;19.386;2023-03-14T13:06:09;9.80;99.90
21459;DHT22;10891;49.350;19.386;2023-03-14T13:08:39;9.80;99.90
21459;DHT22;10891;49.350;19.386;2023-03-14T13:11:10;9.80;99.90
21459;DHT22;10891;49.350;19.386;2023-03-14T13:13:42;9.70;99.90
21459;DHT22;10891;49.350;19.386;2023-03-14T13:16:16;9.80;99.90
21459;DHT22;10891;49.350;19.386;2023-03-14T13:18:44;9.70;99.90
21459;DHT22;10891;49.350;19.386;2023-03-14T13:21:15;9.70;99.90
21459;DHT22;10891;49.350;19.386;2023-03-14T13:23:54;9.70;99.90
21459;DHT22;10891;49.350;19.386;2023-03-14T13:26:25;9.60;99.90
21459;DHT22;10891;49.350;19.386;2023-03-14T13:28:59;9.60;99.90
21459;DHT22;10891;49.350;19.386;2023-03-14T13:31:26;9.60;99.90
21459;DHT22;10891;49.350;19.386;2023-03-14T13:34:00;9.60;99.90
21459;DHT22;10891;49.350;19.386;2023-03-14T13:36:27;9.60;99.90
21459;DHT22;10891;49.350;19.386;2023-03-14T13:38:58;9.60;99.90
21459;DHT22;10891;49.350;19.386;2023-03-14T13:41:27;9.70;99.90
21459;DHT22;10891;49.350;19.386;2023-03-14T13:44:01;9.70;99.90
21459;DHT22;10891;49.350;19.386;2023-03-14T13:46:29;9.70;99.90
21459;DHT22;10891;49.350;19.386;2023-03-14T13:49:11;9.70;99.90
21459;DHT22;10891;49.350;19.386;2023-03-14T13:51:40;9.70;99.90
21459;DHT22;10891;49.350;19.386;2023-03-14T13:54:14;9.70;99.90
21459;DHT22;10891;49.350;19.386;2023-03-14T13:56:41;9.60;99.90
21459;DHT22;10891;49.350;19.386;2023-03-14T13:59:21;9.60;99.90
21459;DHT22;10891;49.350;19.386;2023-03-14T14:01:49;9.50;99.90
21459;DHT22;10891;49.350;19.386;2023-03-14T14:04:19;9.40;99.90
21459;DHT22;10891;49.350;19.386;2023-03-14T14:06:50;9.30;99.90
21459;DHT22;10891;49.350;19.386;2023-03-14T14:09:21;9.40;99.90
21459;DHT22;10891;49.350;19.386;2023-03-14T14:11:53;9.40;99.90
21459;DHT22;10891;49.350;19.386;2023-03-14T14:14:23;9.40;99.90
21459;DHT22;10891;49.350;19.386;2023-03-14T14:16:52;9.40;99.90
21459;DHT22;10891;49.350;19.386;2023-03-14T14:19:23;9.30;99.90
21459;DHT22;10891;49.350;19.386;2023-03-14T14:21:51;9.30;99.90
21459;DHT22;10891;49.350;19.386;2023-03-14T14:24:20;9.20;99.90
21459;DHT22;10891;49.350;19.386;2023-03-14T14:26:53;9.20;99.90
21459;DHT22;10891;49.350;19.386;2023-03-14T14:29:26;9.10;99.90
21459;DHT22;10891;49.350;19.386;2023-03-14T14:32:02;9.00;99.90
21459;DHT22;10891;49.350;19.386;2023-03-14T14:34:38;9.00;99.90
21459;DHT22;10891;49.350;19.386;2023-03-14T14:37:21;9.00;99.90
21459;DHT22;10891;49.350;19.386;2023-03-14T14:39:49;9.00;99.90
21459;DHT22;10891;49.350;19.386;2023-03-14T14:42:19;9.00;99.90
21459;DHT22;10891;49.350;19.386;2023-03-14T14:44:49;8.90;99.90
21459;DHT22;10891;49.350;19.386;2023-03-14T14:47:20;8.90;99.90
21459;DHT22;10891;49.350;19.386;2023-03-14T14:49:50;8.90;99.90
21459;DHT22;10891;49.350;19.386;2023-03-14T14:52:19;8.90;99.90
21459;DHT22;10891;49.350;19.386;2023-03-14T14:54:48;8.90;99.90
21459;DHT22;10891;49.350;19.386;2023-03-14T14:57:22;9.00;99.90
21459;DHT22;10891;49.350;19.386;2023-03-14T14:59:50;9.00;99.90
21459;DHT22;10891;49.350;19.386;2023-03-14T15:02:30;9.00;99.90
21459;DHT22;10891;49.350;19.386;2023-03-14T15:05:00;8.90;99.90
21459;DHT22;10891;49.350;19.386;2023-03-14T15:07:27;8.90;99.90
21459;DHT22;10891;49.350;19.386;2023-03-14T15:09:54;8.90;99.90
21459;DHT22;10891;49.350;19.386;2023-03-14T15:12:20;8.90;99.90
21459;DHT22;10891;49.350;19.386;2023-03-14T15:14:50;8.90;99.90
21459;DHT22;10891;49.350;19.386;2023-03-14T15:17:17;9.00;99.90
21459;DHT22;10891;49.350;19.386;2023-03-14T15:19:43;9.00;99.90
21459;DHT22;10891;49.350;19.386;2023-03-14T15:22:13;9.00;99.90
21459;DHT22;10891;49.350;19.386;2023-03-14T15:24:40;8.90;99.90
21459;DHT22;10891;49.350;19.386;2023-03-14T15:27:13;8.80;99.90
21459;DHT22;10891;49.350;19.386;2023-03-14T15:29:40;8.70;99.90
21459;DHT22;10891;49.350;19.386;2023-03-14T15:32:11;8.60;99.90
21459;DHT22;10891;49.350;19.386;2023-03-14T15:34:38;8.60;99.90
21459;DHT22;10891;49.350;19.386;2023-03-14T15:37:05;8.50;99.90
21459;DHT22;10891;49.350;19.386;2023-03-14T15:39:34;8.50;99.90